sensor_id;sensor_type;location;lat;lon;timestamp;temperature;humidity
74101;DHT22;62462;52.530;21.682;2023-07-13T00:01:29;21.90;65.40
74101;DHT22;62462;52.530;21.682;2023-07-13T00:07:36;21.80;64.90
74101;DHT22;62462;52.530;21.682;2023-07-13T00:10:50;21.80;65.20
74101;DHT22;62462;52.530;21.682;2023-07-13T00:17:14;21.80;65.50
74101;DHT22;62462;52.530;21.682;2023-07-13T00:20:26;21.70;64.60
74101;DHT22;62462;52.530;21.682;2023-07-13T00:27:07;21.70;65.20
74101;DHT22;62462;52.530;21.682;2023-07-13T00:30:20;21.70;65.70
74101;DHT22;62462;52.530;21.682;2023-07-13T00:36:41;21.60;64.70
74101;DHT22;62462;52.530;21.682;2023-07-13T00:39:49;21.60;64.60
74101;DHT22;62462;52.530;21.682;2023-07-13T00:49:45;21.60;65.20
74101;DHT22;62462;52.530;21.682;2023-07-13T00:52:30;21.50;65.20
74101;DHT22;62462;52.530;21.682;2023-07-13T00:58:28;21.30;65.00
74101;DHT22;62462;52.530;21.682;2023-07-13T01:01:23;21.30;65.00
74101;DHT22;62462;52.530;21.682;2023-07-13T01:04:24;21.30;65.10
74101;DHT22;62462;52.530;21.682;2023-07-13T01:07:29;21.30;65.40
74101;DHT22;62462;52.530;21.682;2023-07-13T01:14:33;21.30;65.10
74101;DHT22;62462;52.530;21.682;2023-07-13T01:17:33;21.30;65.00
74101;DHT22;62462;52.530;21.682;2023-07-13T01:24:00;21.20;65.40
74101;DHT22;62462;52.530;21.682;2023-07-13T01:26:37;21.20;65.20
74101;DHT22;62462;52.530;21.682;2023-07-13T01:29:43;21.20;65.30
74101;DHT22;62462;52.530;21.682;2023-07-13T01:32:23;21.20;65.40
74101;DHT22;62462;52.530;21.682;2023-07-13T01:35:03;21.10;65.30
74101;DHT22;62462;52.530;21.682;2023-07-13T01:38:09;21.10;65.10
74101;DHT22;62462;52.530;21.682;2023-07-13T01:40:54;21.00;65.00
74101;DHT22;62462;52.530;21.682;2023-07-13T01:43:32;20.90;66.40
74101;DHT22;62462;52.530;21.682;2023-07-13T01:46:26;20.80;66.30
74101;DHT22;62462;52.530;21.682;2023-07-13T01:49:06;20.90;65.90
74101;DHT22;62462;52.530;21.682;2023-07-13T01:51:56;20.80;65.80
74101;DHT22;62462;52.530;21.682;2023-07-13T01:58:02;20.70;65.70
74101;DHT22;62462;52.530;21.682;2023-07-13T02:01:08;20.70;65.90
74101;DHT22;62462;52.530;21.682;2023-07-13T02:03:59;20.60;66.70
74101;DHT22;62462;52.530;21.682;2023-07-13T02:07:01;20.60;67.00
74101;DHT22;62462;52.530;21.682;2023-07-13T02:10:05;20.60;66.20
74101;DHT22;62462;52.530;21.682;2023-07-13T02:19:32;20.70;66.20
74101;DHT22;62462;52.530;21.682;2023-07-13T02:22:00;20.70;65.40
74101;DHT22;62462;52.530;21.682;2023-07-13T02:24:27;20.70;65.30
74101;DHT22;62462;52.530;21.682;2023-07-13T02:26:57;20.70;65.50
74101;DHT22;62462;52.530;21.682;2023-07-13T02:29:24;20.60;66.00
74101;DHT22;62462;52.530;21.682;2023-07-13T02:31:51;20.60;65.80
74101;DHT22;62462;52.530;21.682;2023-07-13T02:34:18;20.60;65.90
74101;DHT22;62462;52.530;21.682;2023-07-13T02:36:45;20.60;65.80
74101;DHT22;62462;52.530;21.682;2023-07-13T02:39:15;20.60;65.70
74101;DHT22;62462;52.530;21.682;2023-07-13T02:41:42;20.60;65.10
74101;DHT22;62462;52.530;21.682;2023-07-13T02:44:09;20.60;65.00
74101;DHT22;62462;52.530;21.682;2023-07-13T02:46:40;20.60;64.90
74101;DHT22;62462;52.530;21.682;2023-07-13T02:49:07;20.60;64.70
74101;DHT22;62462;52.530;21.682;2023-07-13T02:51:34;20.60;64.80
74101;DHT22;62462;52.530;21.682;2023-07-13T02:54:02;20.60;65.20
74101;DHT22;62462;52.530;21.682;2023-07-13T02:56:30;20.60;65.70
74101;DHT22;62462;52.530;21.682;2023-07-13T02:58:57;20.60;66.10
74101;DHT22;62462;52.530;21.682;2023-07-13T03:01:24;20.60;66.10
74101;DHT22;62462;52.530;21.682;2023-07-13T03:03:52;20.60;66.70
74101;DHT22;62462;52.530;21.682;2023-07-13T03:06:19;20.60;66.20
74101;DHT22;62462;52.530;21.682;2023-07-13T03:08:47;20.60;66.10
74101;DHT22;62462;52.530;21.682;2023-07-13T03:11:17;20.60;66.20
74101;DHT22;62462;52.530;21.682;2023-07-13T03:13:45;20.70;66.20
74101;DHT22;62462;52.530;21.682;2023-07-13T03:16:13;20.70;66.10
74101;DHT22;62462;52.530;21.682;2023-07-13T03:18:42;20.70;66.20
74101;DHT22;62462;52.530;21.682;2023-07-13T03:21:09;20.70;66.20
74101;DHT22;62462;52.530;21.682;2023-07-13T03:23:36;20.80;66.30
74101;DHT22;62462;52.530;21.682;2023-07-13T03:26:12;20.80;66.70
74101;DHT22;62462;52.530;21.682;2023-07-13T03:28:39;20.80;66.90
74101;DHT22;62462;52.530;21.682;2023-07-13T03:31:10;20.80;67.00
74101;DHT22;62462;52.530;21.682;2023-07-13T03:33:37;20.80;67.40
74101;DHT22;62462;52.530;21.682;2023-07-13T03:36:05;20.80;68.70
74101;DHT22;62462;52.530;21.682;2023-07-13T03:38:33;20.80;68.90
74101;DHT22;62462;52.530;21.682;2023-07-13T03:41:00;20.80;68.70
74101;DHT22;62462;52.530;21.682;2023-07-13T03:43:27;20.90;68.60
74101;DHT22;62462;52.530;21.682;2023-07-13T03:45:55;21.00;68.40
74101;DHT22;62462;52.530;21.682;2023-07-13T03:48:22;21.00;68.60
74101;DHT22;62462;52.530;21.682;2023-07-13T03:50:49;21.00;68.40
74101;DHT22;62462;52.530;21.682;2023-07-13T03:53:16;21.10;68.70
74101;DHT22;62462;52.530;21.682;2023-07-13T03:55:43;21.10;68.70
74101;DHT22;62462;52.530;21.682;2023-07-13T03:58:27;21.10;68.80
74101;DHT22;62462;52.530;21.682;2023-07-13T04:00:55;21.20;68.70
74101;DHT22;62462;52.530;21.682;2023-07-13T04:03:24;21.30;68.70
74101;DHT22;62462;52.530;21.682;2023-07-13T04:05:51;21.30;68.60
74101;DHT22;62462;52.530;21.682;2023-07-13T04:08:18;21.40;68.70
74101;DHT22;62462;52.530;21.682;2023-07-13T04:10:45;21.40;68.70
74101;DHT22;62462;52.530;21.682;2023-07-13T04:13:12;21.40;69.20
74101;DHT22;62462;52.530;21.682;2023-07-13T04:15:39;21.30;69.40
74101;DHT22;62462;52.530;21.682;2023-07-13T04:18:06;21.40;69.30
74101;DHT22;62462;52.530;21.682;2023-07-13T04:20:34;21.40;69.40
74101;DHT22;62462;52.530;21.682;2023-07-13T04:23:03;21.40;70.00
74101;DHT22;62462;52.530;21.682;2023-07-13T04:25:32;21.40;70.20
74101;DHT22;62462;52.530;21.682;2023-07-13T04:28:01;21.40;70.00
74101;DHT22;62462;52.530;21.682;2023-07-13T04:30:29;21.50;69.80
74101;DHT22;62462;52.530;21.682;2023-07-13T04:32:57;21.50;69.80
74101;DHT22;62462;52.530;21.682;2023-07-13T04:35:25;21.60;69.70
74101;DHT22;62462;52.530;21.682;2023-07-13T04:37:52;21.70;69.60
74101;DHT22;62462;52.530;21.682;2023-07-13T04:40:20;21.80;69.40
74101;DHT22;62462;52.530;21.682;2023-07-13T04:42:47;21.80;69.60
74101;DHT22;62462;52.530;21.682;2023-07-13T04:45:15;21.90;70.00
74101;DHT22;62462;52.530;21.682;2023-07-13T04:47:42;21.90;70.30
74101;DHT22;62462;52.530;21.682;2023-07-13T04:50:10;21.90;70.40
74101;DHT22;62462;52.530;21.682;2023-07-13T04:52:37;22.00;70.20
74101;DHT22;62462;52.530;21.682;2023-07-13T04:55:08;22.00;70.30
74101;DHT22;62462;52.530;21.682;2023-07-13T04:57:35;22.10;70.60
74101;DHT22;62462;52.530;21.682;2023-07-13T05:00:02;22.20;70.20
74101;DHT22;62462;52.530;21.682;2023-07-13T05:02:33;22.30;70.40
74101;DHT22;62462;52.530;21.682;2023-07-13T05:05:00;22.30;70.40
74101;DHT22;62462;52.530;21.682;2023-07-13T05:07:30;22.40;70.50
74101;DHT22;62462;52.530;21.682;2023-07-13T05:09:59;22.40;71.00
74101;DHT22;62462;52.530;21.682;2023-07-13T05:12:27;22.40;71.20
74101;DHT22;62462;52.530;21.682;2023-07-13T05:14:53;22.50;71.10
74101;DHT22;62462;52.530;21.682;2023-07-13T05:17:19;22.70;70.50
74101;DHT22;62462;52.530;21.682;2023-07-13T05:19:45;22.80;69.80
74101;DHT22;62462;52.530;21.682;2023-07-13T05:22:11;23.10;69.30
74101;DHT22;62462;52.530;21.682;2023-07-13T05:24:37;23.10;69.40
74101;DHT22;62462;52.530;21.682;2023-07-13T05:27:02;23.20;69.30
74101;DHT22;62462;52.530;21.682;2023-07-13T05:29:28;23.20;68.80
74101;DHT22;62462;52.530;21.682;2023-07-13T05:31:54;23.30;68.40
74101;DHT22;62462;52.530;21.682;2023-07-13T05:34:20;23.20;68.70
74101;DHT22;62462;52.530;21.682;2023-07-13T05:36:46;23.20;68.80
74101;DHT22;62462;52.530;21.682;2023-07-13T05:39:11;23.20;68.30
74101;DHT22;62462;52.530;21.682;2023-07-13T05:41:37;23.20;68.00
74101;DHT22;62462;52.530;21.682;2023-07-13T05:44:03;23.30;67.70
74101;DHT22;62462;52.530;21.682;2023-07-13T05:46:29;23.40;67.60
74101;DHT22;62462;52.530;21.682;2023-07-13T05:48:55;23.50;67.30
74101;DHT22;62462;52.530;21.682;2023-07-13T05:51:20;23.50;67.10
74101;DHT22;62462;52.530;21.682;2023-07-13T05:53:46;23.70;66.90
74101;DHT22;62462;52.530;21.682;2023-07-13T05:56:12;23.70;66.50
74101;DHT22;62462;52.530;21.682;2023-07-13T05:58:38;23.80;66.20
74101;DHT22;62462;52.530;21.682;2023-07-13T06:01:10;23.80;65.80
74101;DHT22;62462;52.530;21.682;2023-07-13T06:03:36;23.80;64.70
74101;DHT22;62462;52.530;21.682;2023-07-13T06:06:04;23.80;64.30
74101;DHT22;62462;52.530;21.682;2023-07-13T06:08:31;23.80;64.50
74101;DHT22;62462;52.530;21.682;2023-07-13T06:11:24;23.70;64.60
74101;DHT22;62462;52.530;21.682;2023-07-13T06:13:50;23.80;64.50
74101;DHT22;62462;52.530;21.682;2023-07-13T06:16:17;23.80;63.50
74101;DHT22;62462;52.530;21.682;2023-07-13T06:18:43;23.80;63.30
74101;DHT22;62462;52.530;21.682;2023-07-13T06:21:17;23.90;63.30
74101;DHT22;62462;52.530;21.682;2023-07-13T06:23:44;23.90;62.50
74101;DHT22;62462;52.530;21.682;2023-07-13T06:26:11;24.00;62.70
74101;DHT22;62462;52.530;21.682;2023-07-13T06:28:37;24.10;62.00
74101;DHT22;62462;52.530;21.682;2023-07-13T06:31:06;24.20;58.80
74101;DHT22;62462;52.530;21.682;2023-07-13T06:33:32;24.40;59.00
74101;DHT22;62462;52.530;21.682;2023-07-13T06:35:58;24.70;58.80
74101;DHT22;62462;52.530;21.682;2023-07-13T06:38:24;24.70;56.80
74101;DHT22;62462;52.530;21.682;2023-07-13T06:40:49;24.70;56.10
74101;DHT22;62462;52.530;21.682;2023-07-13T06:43:15;24.70;56.00
74101;DHT22;62462;52.530;21.682;2023-07-13T06:45:45;24.80;56.30
74101;DHT22;62462;52.530;21.682;2023-07-13T06:48:13;24.80;56.40
74101;DHT22;62462;52.530;21.682;2023-07-13T06:50:39;24.90;56.40
74101;DHT22;62462;52.530;21.682;2023-07-13T06:53:04;24.90;56.80
74101;DHT22;62462;52.530;21.682;2023-07-13T06:55:30;25.00;57.00
74101;DHT22;62462;52.530;21.682;2023-07-13T06:57:56;25.10;56.50
74101;DHT22;62462;52.530;21.682;2023-07-13T07:00:22;25.10;54.70
74101;DHT22;62462;52.530;21.682;2023-07-13T07:02:48;25.20;56.00
74101;DHT22;62462;52.530;21.682;2023-07-13T07:05:14;25.30;56.10
74101;DHT22;62462;52.530;21.682;2023-07-13T07:07:40;25.30;56.10
74101;DHT22;62462;52.530;21.682;2023-07-13T07:10:06;25.20;53.70
74101;DHT22;62462;52.530;21.682;2023-07-13T07:12:31;25.20;53.80
74101;DHT22;62462;52.530;21.682;2023-07-13T07:14:57;25.30;53.30
74101;DHT22;62462;52.530;21.682;2023-07-13T07:17:23;25.40;54.10
74101;DHT22;62462;52.530;21.682;2023-07-13T07:19:48;25.60;54.20
74101;DHT22;62462;52.530;21.682;2023-07-13T07:22:14;25.60;52.90
74101;DHT22;62462;52.530;21.682;2023-07-13T07:24:40;25.50;52.00
74101;DHT22;62462;52.530;21.682;2023-07-13T07:27:06;25.50;52.90
74101;DHT22;62462;52.530;21.682;2023-07-13T07:29:31;25.60;54.80
74101;DHT22;62462;52.530;21.682;2023-07-13T07:31:59;25.80;53.80
74101;DHT22;62462;52.530;21.682;2023-07-13T07:34:25;26.00;53.00
74101;DHT22;62462;52.530;21.682;2023-07-13T07:36:50;26.10;53.30
74101;DHT22;62462;52.530;21.682;2023-07-13T07:39:16;26.40;51.80
74101;DHT22;62462;52.530;21.682;2023-07-13T07:41:42;26.50;51.10
74101;DHT22;62462;52.530;21.682;2023-07-13T07:44:08;26.60;50.00
74101;DHT22;62462;52.530;21.682;2023-07-13T07:46:35;26.70;50.00
74101;DHT22;62462;52.530;21.682;2023-07-13T07:49:01;26.90;48.80
74101;DHT22;62462;52.530;21.682;2023-07-13T07:51:27;26.90;49.10
74101;DHT22;62462;52.530;21.682;2023-07-13T07:53:54;27.00;49.90
74101;DHT22;62462;52.530;21.682;2023-07-13T07:56:19;27.20;50.20
74101;DHT22;62462;52.530;21.682;2023-07-13T07:58:45;27.30;49.30
74101;DHT22;62462;52.530;21.682;2023-07-13T08:01:11;27.20;47.50
74101;DHT22;62462;52.530;21.682;2023-07-13T08:03:36;27.00;46.60
74101;DHT22;62462;52.530;21.682;2023-07-13T08:06:02;26.90;48.50
74101;DHT22;62462;52.530;21.682;2023-07-13T08:08:28;26.80;47.40
74101;DHT22;62462;52.530;21.682;2023-07-13T08:10:54;26.60;47.00
74101;DHT22;62462;52.530;21.682;2023-07-13T08:13:19;26.50;47.50
74101;DHT22;62462;52.530;21.682;2023-07-13T08:15:46;26.40;47.70
74101;DHT22;62462;52.530;21.682;2023-07-13T08:18:12;26.40;48.90
74101;DHT22;62462;52.530;21.682;2023-07-13T08:20:39;26.50;49.00
74101;DHT22;62462;52.530;21.682;2023-07-13T08:23:05;26.40;49.40
74101;DHT22;62462;52.530;21.682;2023-07-13T08:25:32;26.30;49.30
74101;DHT22;62462;52.530;21.682;2023-07-13T08:27:57;26.20;49.60
74101;DHT22;62462;52.530;21.682;2023-07-13T08:30:23;26.00;50.20
74101;DHT22;62462;52.530;21.682;2023-07-13T08:32:49;25.90;50.90
74101;DHT22;62462;52.530;21.682;2023-07-13T08:35:15;25.70;52.10
74101;DHT22;62462;52.530;21.682;2023-07-13T08:37:41;25.50;54.00
74101;DHT22;62462;52.530;21.682;2023-07-13T08:40:12;25.30;54.20
74101;DHT22;62462;52.530;21.682;2023-07-13T08:42:58;25.10;55.70
74101;DHT22;62462;52.530;21.682;2023-07-13T08:45:42;25.00;56.80
74101;DHT22;62462;52.530;21.682;2023-07-13T08:48:15;25.10;57.40
74101;DHT22;62462;52.530;21.682;2023-07-13T08:51:17;25.10;58.00
74101;DHT22;62462;52.530;21.682;2023-07-13T08:53:49;25.10;59.20
74101;DHT22;62462;52.530;21.682;2023-07-13T08:56:22;25.10;58.80
74101;DHT22;62462;52.530;21.682;2023-07-13T08:58:51;25.10;58.80
74101;DHT22;62462;52.530;21.682;2023-07-13T09:04:26;25.10;58.50
74101;DHT22;62462;52.530;21.682;2023-07-13T09:12:20;25.30;58.70
74101;DHT22;62462;52.530;21.682;2023-07-13T09:14:51;25.40;58.50
74101;DHT22;62462;52.530;21.682;2023-07-13T09:17:51;25.60;58.70
74101;DHT22;62462;52.530;21.682;2023-07-13T09:20:25;25.90;59.40
74101;DHT22;62462;52.530;21.682;2023-07-13T09:22:52;26.10;58.30
74101;DHT22;62462;52.530;21.682;2023-07-13T09:25:30;26.40;57.10
74101;DHT22;62462;52.530;21.682;2023-07-13T09:28:05;26.50;56.50
74101;DHT22;62462;52.530;21.682;2023-07-13T09:31:01;26.70;56.10
74101;DHT22;62462;52.530;21.682;2023-07-13T09:33:29;26.70;53.70
74101;DHT22;62462;52.530;21.682;2023-07-13T09:35:59;26.70;53.90
74101;DHT22;62462;52.530;21.682;2023-07-13T09:38:27;26.60;53.10
74101;DHT22;62462;52.530;21.682;2023-07-13T09:43:36;26.30;53.70
74101;DHT22;62462;52.530;21.682;2023-07-13T09:46:02;26.10;53.30
74101;DHT22;62462;52.530;21.682;2023-07-13T09:48:35;25.90;52.90
74101;DHT22;62462;52.530;21.682;2023-07-13T09:51:12;25.80;53.20
74101;DHT22;62462;52.530;21.682;2023-07-13T09:53:41;25.60;53.40
74101;DHT22;62462;52.530;21.682;2023-07-13T09:56:22;25.60;53.40
74101;DHT22;62462;52.530;21.682;2023-07-13T09:58:48;25.50;53.20
74101;DHT22;62462;52.530;21.682;2023-07-13T10:01:14;25.40;52.50
74101;DHT22;62462;52.530;21.682;2023-07-13T10:03:52;25.20;52.80
74101;DHT22;62462;52.530;21.682;2023-07-13T10:06:21;25.00;54.00
74101;DHT22;62462;52.530;21.682;2023-07-13T10:08:49;24.90;54.60
74101;DHT22;62462;52.530;21.682;2023-07-13T10:13:58;24.80;54.50
74101;DHT22;62462;52.530;21.682;2023-07-13T10:16:31;24.70;54.40
74101;DHT22;62462;52.530;21.682;2023-07-13T10:19:00;24.60;55.50
74101;DHT22;62462;52.530;21.682;2023-07-13T10:21:38;24.50;55.80
74101;DHT22;62462;52.530;21.682;2023-07-13T10:24:15;24.50;56.50
74101;DHT22;62462;52.530;21.682;2023-07-13T10:27:33;24.60;57.10
74101;DHT22;62462;52.530;21.682;2023-07-13T10:29:42;24.60;57.70
74101;DHT22;62462;52.530;21.682;2023-07-13T10:32:13;24.60;57.40
74101;DHT22;62462;52.530;21.682;2023-07-13T10:34:42;24.60;57.70
74101;DHT22;62462;52.530;21.682;2023-07-13T10:37:20;24.60;58.10
74101;DHT22;62462;52.530;21.682;2023-07-13T10:39:48;24.60;57.80
74101;DHT22;62462;52.530;21.682;2023-07-13T10:42:27;24.60;57.20
74101;DHT22;62462;52.530;21.682;2023-07-13T10:44:54;24.50;58.30
74101;DHT22;62462;52.530;21.682;2023-07-13T10:47:20;24.40;58.60
74101;DHT22;62462;52.530;21.682;2023-07-13T10:49:48;24.50;59.10
74101;DHT22;62462;52.530;21.682;2023-07-13T10:52:40;24.50;58.40
74101;DHT22;62462;52.530;21.682;2023-07-13T10:58:02;24.60;58.30
74101;DHT22;62462;52.530;21.682;2023-07-13T11:00:31;24.70;58.40
74101;DHT22;62462;52.530;21.682;2023-07-13T11:03:00;24.70;58.70
74101;DHT22;62462;52.530;21.682;2023-07-13T11:05:32;24.80;58.40
74101;DHT22;62462;52.530;21.682;2023-07-13T11:08:32;24.80;57.80
74101;DHT22;62462;52.530;21.682;2023-07-13T11:10:59;24.80;57.60
74101;DHT22;62462;52.530;21.682;2023-07-13T11:18:52;25.00;57.90
74101;DHT22;62462;52.530;21.682;2023-07-13T11:21:20;25.20;56.30
74101;DHT22;62462;52.530;21.682;2023-07-13T11:24:03;25.30;56.30
74101;DHT22;62462;52.530;21.682;2023-07-13T11:27:02;25.40;56.60
74101;DHT22;62462;52.530;21.682;2023-07-13T11:29:48;25.50;56.10
74101;DHT22;62462;52.530;21.682;2023-07-13T11:32:25;25.50;55.90
74101;DHT22;62462;52.530;21.682;2023-07-13T11:34:55;25.50;56.40
74101;DHT22;62462;52.530;21.682;2023-07-13T11:37:22;25.40;57.20
74101;DHT22;62462;52.530;21.682;2023-07-13T11:39:50;25.40;56.50
74101;DHT22;62462;52.530;21.682;2023-07-13T11:42:18;25.40;56.20
74101;DHT22;62462;52.530;21.682;2023-07-13T11:44:50;25.30;55.30
74101;DHT22;62462;52.530;21.682;2023-07-13T11:47:21;25.20;54.20
74101;DHT22;62462;52.530;21.682;2023-07-13T11:49:53;25.10;54.60
74101;DHT22;62462;52.530;21.682;2023-07-13T11:52:35;25.00;55.10
74101;DHT22;62462;52.530;21.682;2023-07-13T11:55:04;24.90;55.50
74101;DHT22;62462;52.530;21.682;2023-07-13T11:57:44;24.90;55.80
74101;DHT22;62462;52.530;21.682;2023-07-13T12:00:14;24.90;56.10
74101;DHT22;62462;52.530;21.682;2023-07-13T12:02:53;24.80;56.10
74101;DHT22;62462;52.530;21.682;2023-07-13T12:05:20;24.80;56.60
74101;DHT22;62462;52.530;21.682;2023-07-13T12:07:47;24.80;57.20
74101;DHT22;62462;52.530;21.682;2023-07-13T12:10:27;24.80;57.60
74101;DHT22;62462;52.530;21.682;2023-07-13T12:13:04;24.80;58.00
74101;DHT22;62462;52.530;21.682;2023-07-13T12:15:42;24.70;58.80
74101;DHT22;62462;52.530;21.682;2023-07-13T12:18:14;24.60;59.80
74101;DHT22;62462;52.530;21.682;2023-07-13T12:20:40;24.40;59.40
74101;DHT22;62462;52.530;21.682;2023-07-13T12:25:51;24.30;59.90
74101;DHT22;62462;52.530;21.682;2023-07-13T12:31:01;24.40;60.20
74101;DHT22;62462;52.530;21.682;2023-07-13T12:33:31;24.30;60.10
74101;DHT22;62462;52.530;21.682;2023-07-13T12:36:00;24.40;60.50
74101;DHT22;62462;52.530;21.682;2023-07-13T12:38:27;24.40;62.20
74101;DHT22;62462;52.530;21.682;2023-07-13T12:40:53;24.40;61.10
74101;DHT22;62462;52.530;21.682;2023-07-13T12:43:23;24.40;61.30
74101;DHT22;62462;52.530;21.682;2023-07-13T12:45:59;24.40;61.50
74101;DHT22;62462;52.530;21.682;2023-07-13T12:48:26;24.30;61.60
74101;DHT22;62462;52.530;21.682;2023-07-13T12:50:54;24.20;61.70
74101;DHT22;62462;52.530;21.682;2023-07-13T12:53:28;24.10;62.00
74101;DHT22;62462;52.530;21.682;2023-07-13T12:55:59;23.90;62.50
74101;DHT22;62462;52.530;21.682;2023-07-13T12:58:37;23.80;63.40
74101;DHT22;62462;52.530;21.682;2023-07-13T13:01:05;23.70;63.30
74101;DHT22;62462;52.530;21.682;2023-07-13T13:03:37;23.70;63.60
74101;DHT22;62462;52.530;21.682;2023-07-13T13:08:41;23.70;64.20
74101;DHT22;62462;52.530;21.682;2023-07-13T13:11:08;23.60;64.70
74101;DHT22;62462;52.530;21.682;2023-07-13T13:13:35;23.70;64.80
74101;DHT22;62462;52.530;21.682;2023-07-13T13:16:32;23.70;64.30
74101;DHT22;62462;52.530;21.682;2023-07-13T13:19:25;23.80;64.30
74101;DHT22;62462;52.530;21.682;2023-07-13T13:21:54;23.80;64.00
74101;DHT22;62462;52.530;21.682;2023-07-13T13:24:24;23.80;63.90
74101;DHT22;62462;52.530;21.682;2023-07-13T13:26:51;23.80;63.80
74101;DHT22;62462;52.530;21.682;2023-07-13T13:29:19;23.80;63.80
74101;DHT22;62462;52.530;21.682;2023-07-13T13:31:46;23.80;63.60
74101;DHT22;62462;52.530;21.682;2023-07-13T13:34:16;23.80;63.40
74101;DHT22;62462;52.530;21.682;2023-07-13T13:36:43;23.80;63.60
74101;DHT22;62462;52.530;21.682;2023-07-13T13:39:24;23.80;65.40
74101;DHT22;62462;52.530;21.682;2023-07-13T13:41:51;23.70;65.80
74101;DHT22;62462;52.530;21.682;2023-07-13T13:44:17;23.60;66.20
74101;DHT22;62462;52.530;21.682;2023-07-13T13:46:46;23.70;66.20
74101;DHT22;62462;52.530;21.682;2023-07-13T13:49:18;23.70;66.00
74101;DHT22;62462;52.530;21.682;2023-07-13T13:51:45;23.80;66.50
74101;DHT22;62462;52.530;21.682;2023-07-13T13:54:15;23.70;67.00
74101;DHT22;62462;52.530;21.682;2023-07-13T13:56:46;23.60;67.00
74101;DHT22;62462;52.530;21.682;2023-07-13T13:59:13;23.60;67.50
74101;DHT22;62462;52.530;21.682;2023-07-13T14:01:41;23.60;67.40
74101;DHT22;62462;52.530;21.682;2023-07-13T14:04:16;23.50;67.50
74101;DHT22;62462;52.530;21.682;2023-07-13T14:06:43;23.30;68.50
74101;DHT22;62462;52.530;21.682;2023-07-13T14:09:14;23.30;69.10
74101;DHT22;62462;52.530;21.682;2023-07-13T14:11:41;23.30;69.80
74101;DHT22;62462;52.530;21.682;2023-07-13T14:14:12;23.30;68.30
74101;DHT22;62462;52.530;21.682;2023-07-13T14:16:40;23.30;68.10
74101;DHT22;62462;52.530;21.682;2023-07-13T14:19:10;23.40;67.80
74101;DHT22;62462;52.530;21.682;2023-07-13T14:21:37;23.50;67.50
74101;DHT22;62462;52.530;21.682;2023-07-13T14:24:02;23.60;67.30
74101;DHT22;62462;52.530;21.682;2023-07-13T14:26:32;23.60;67.00
74101;DHT22;62462;52.530;21.682;2023-07-13T14:29:01;23.60;66.80
74101;DHT22;62462;52.530;21.682;2023-07-13T14:31:27;23.60;67.00
74101;DHT22;62462;52.530;21.682;2023-07-13T14:33:56;23.60;66.80
74101;DHT22;62462;52.530;21.682;2023-07-13T14:36:32;23.60;67.00
74101;DHT22;62462;52.530;21.682;2023-07-13T14:39:01;23.50;67.10
74101;DHT22;62462;52.530;21.682;2023-07-13T14:41:31;23.50;67.10
74101;DHT22;62462;52.530;21.682;2023-07-13T14:43:58;23.60;67.00
74101;DHT22;62462;52.530;21.682;2023-07-13T14:46:32;23.50;66.70
74101;DHT22;62462;52.530;21.682;2023-07-13T14:49:05;23.50;67.00
74101;DHT22;62462;52.530;21.682;2023-07-13T14:51:31;23.50;67.50
74101;DHT22;62462;52.530;21.682;2023-07-13T14:54:01;23.50;67.80
74101;DHT22;62462;52.530;21.682;2023-07-13T14:56:27;23.40;68.20
74101;DHT22;62462;52.530;21.682;2023-07-13T14:58:53;23.20;68.70
74101;DHT22;62462;52.530;21.682;2023-07-13T15:01:19;23.10;69.30
74101;DHT22;62462;52.530;21.682;2023-07-13T15:03:49;23.00;69.50
74101;DHT22;62462;52.530;21.682;2023-07-13T15:06:15;22.90;69.70
74101;DHT22;62462;52.530;21.682;2023-07-13T15:08:41;23.00;69.80
74101;DHT22;62462;52.530;21.682;2023-07-13T15:11:09;23.00;69.50
74101;DHT22;62462;52.530;21.682;2023-07-13T15:13:39;23.00;68.90
74101;DHT22;62462;52.530;21.682;2023-07-13T15:16:32;23.10;69.00
74101;DHT22;62462;52.530;21.682;2023-07-13T15:18:59;23.10;69.00
74101;DHT22;62462;52.530;21.682;2023-07-13T15:21:24;23.00;69.10
74101;DHT22;62462;52.530;21.682;2023-07-13T15:23:51;23.00;69.00
74101;DHT22;62462;52.530;21.682;2023-07-13T15:26:18;22.90;69.20
74101;DHT22;62462;52.530;21.682;2023-07-13T15:28:45;22.90;69.50
74101;DHT22;62462;52.530;21.682;2023-07-13T15:31:22;23.00;69.50
74101;DHT22;62462;52.530;21.682;2023-07-13T15:33:52;22.80;70.50
74101;DHT22;62462;52.530;21.682;2023-07-13T15:36:21;22.70;71.00
74101;DHT22;62462;52.530;21.682;2023-07-13T15:38:48;22.60;71.70
74101;DHT22;62462;52.530;21.682;2023-07-13T15:41:27;22.60;71.20
74101;DHT22;62462;52.530;21.682;2023-07-13T15:43:57;22.70;70.90
74101;DHT22;62462;52.530;21.682;2023-07-13T15:46:24;22.70;70.10
74101;DHT22;62462;52.530;21.682;2023-07-13T15:48:51;22.80;69.70
74101;DHT22;62462;52.530;21.682;2023-07-13T15:51:26;22.80;69.50
74101;DHT22;62462;52.530;21.682;2023-07-13T15:53:58;22.80;69.40
74101;DHT22;62462;52.530;21.682;2023-07-13T15:56:26;22.80;69.40
74101;DHT22;62462;52.530;21.682;2023-07-13T15:58:54;22.80;69.30
74101;DHT22;62462;52.530;21.682;2023-07-13T16:01:20;22.80;69.30
74101;DHT22;62462;52.530;21.682;2023-07-13T16:03:47;22.80;69.20
74101;DHT22;62462;52.530;21.682;2023-07-13T16:06:29;22.80;69.30
74101;DHT22;62462;52.530;21.682;2023-07-13T16:08:56;22.80;69.10
74101;DHT22;62462;52.530;21.682;2023-07-13T16:11:26;22.90;69.00
74101;DHT22;62462;52.530;21.682;2023-07-13T16:13:53;22.90;68.70
74101;DHT22;62462;52.530;21.682;2023-07-13T16:16:28;23.00;68.60
74101;DHT22;62462;52.530;21.682;2023-07-13T16:19:01;23.00;68.40
74101;DHT22;62462;52.530;21.682;2023-07-13T16:21:30;23.00;68.30
74101;DHT22;62462;52.530;21.682;2023-07-13T16:23:58;23.00;68.10
74101;DHT22;62462;52.530;21.682;2023-07-13T16:28:52;23.00;68.00
74101;DHT22;62462;52.530;21.682;2023-07-13T16:31:29;23.00;68.10
74101;DHT22;62462;52.530;21.682;2023-07-13T16:33:57;23.00;68.20
74101;DHT22;62462;52.530;21.682;2023-07-13T16:36:24;22.90;68.30
74101;DHT22;62462;52.530;21.682;2023-07-13T16:38:50;22.90;68.50
74101;DHT22;62462;52.530;21.682;2023-07-13T16:41:16;22.90;69.40
74101;DHT22;62462;52.530;21.682;2023-07-13T16:43:42;22.90;68.50
74101;DHT22;62462;52.530;21.682;2023-07-13T16:46:12;22.90;68.40
74101;DHT22;62462;52.530;21.682;2023-07-13T16:48:41;23.00;68.50
74101;DHT22;62462;52.530;21.682;2023-07-13T16:51:07;23.00;68.40
74101;DHT22;62462;52.530;21.682;2023-07-13T16:53:33;23.00;68.50
74101;DHT22;62462;52.530;21.682;2023-07-13T16:56:00;23.00;68.50
74101;DHT22;62462;52.530;21.682;2023-07-13T16:58:29;23.00;68.40